F/V Moorea — FMIT — position and weather

sailwx.info

Track history (hours):
 
Tides and Currents Weather Stations Pressure Air Temp Water Temp Dewpoint Dewpoint Depression Visibility Wind Speed Wind Dir Waves Ship Positions

F/V Moorea

Last reported at 2016-Aug-28 02:31 UTC. Time now 2016-Aug-28 08:36 UTC.
Position N 47°18' W 002°31'.

Length 18 m.

Type: Fishing. MMSI: 228239900.

Date/timePositionNaut miles runAvg speedWind from/ knotsBaromVisibWave heightAir tempDewpointWater temp
2016-Aug-28 02:31N 47°18' W 002°31'0 0.0
2016-Aug-28 01:31N 47°18' W 002°31'5 5.4
2016-Aug-28 00:33N 47°14' W 002°35'9 9.1
2016-Aug-27 23:34N 47°05' W 002°38'9 9.2
2016-Aug-27 22:32N 46°55' W 002°40'18 9.0
2016-Aug-27 20:32N 46°38' W 002°45'8 7.9
2016-Aug-27 19:32N 46°30' W 002°47'15 2.1
2016-Aug-27 12:33N 46°15' W 002°51'4 4.1
2016-Aug-27 11:33N 46°19' W 002°52'5 4.2
2016-Aug-27 10:26N 46°23' W 002°54'2 1.1
2016-Aug-27 08:32N 46°22' W 002°52'4 3.8
2016-Aug-27 07:27N 46°26' W 002°53'4 3.9
2016-Aug-27 06:29N 46°29' W 002°55'4 2.0
2016-Aug-27 04:33N 46°33' W 002°55'4 4.0
2016-Aug-27 03:33N 46°29' W 002°55'4 3.5
2016-Aug-27 02:32N 46°26' W 002°55'28 6.5
2016-Aug-26 22:13N 46°53' W 002°47'710.1
2016-Aug-26 21:33N 46°60' W 002°44'10 9.7
2016-Aug-26 20:33N 47°09' W 002°39'9 9.5
2016-Aug-26 19:33N 47°18' W 002°35'3 0.1
2016-Aug-26 01:14N 47°18' W 002°31'3 4.9
2016-Aug-26 00:33N 47°17' W 002°36'9 9.2
2016-Aug-25 23:33N 47°08' W 002°38'9 8.9
2016-Aug-25 22:32N 46°59' W 002°40'10 9.5
2016-Aug-25 21:32N 46°50' W 002°43'40 4.3
2016-Aug-25 12:21N 46°10' W 002°49'3 3.1
2016-Aug-25 11:32N 46°12' W 002°46'2 1.2
2016-Aug-25 09:33N 46°10' W 002°48'0 0.0
2016-Aug-25 04:31N 46°10' W 002°49'8 3.9
2016-Aug-25 02:27N 46°16' W 002°40'9 9.7
2016-Aug-25 01:32N 46°19' W 002°28'1010.2
2016-Aug-25 00:33N 46°22' W 002°14'1010.2
2016-Aug-24 23:33N 46°25' W 002°00'10 9.8
2016-Aug-24 22:33N 46°29' W 001°47'1 1.1
2016-Aug-24 21:34N 46°30' W 001°48'6 5.7
2016-Aug-24 20:33N 46°27' W 001°54'8 8.2
2016-Aug-24 19:33N 46°24' W 002°06'8 8.3
2016-Aug-24 18:34N 46°22' W 002°17'9 8.4
2016-Aug-24 17:32N 46°19' W 002°29'8 8.2
2016-Aug-24 16:33N 46°16' W 002°40'7 3.2
2016-Aug-24 14:18N 46°11' W 002°48'3 3.6
2016-Aug-24 13:20N 46°08' W 002°48'0 0.2
2016-Aug-24 11:24N 46°08' W 002°48'2 2.7
2016-Aug-24 10:33N 46°10' W 002°50'3 3.0
2016-Aug-24 09:30N 46°12' W 002°46'4 3.9
2016-Aug-24 08:26N 46°08' W 002°49'4 3.3
2016-Aug-24 07:11N 46°12' W 002°47'2 3.2
2016-Aug-24 06:31N 46°14' W 002°49'5 2.3
2016-Aug-24 04:33N 46°09' W 002°48'0 0.3
2016-Aug-24 03:31N 46°09' W 002°48'1 0.9
2016-Aug-24 02:34N 46°09' W 002°49'1 0.9
2016-Aug-24 01:32N 46°08' W 002°48'1 0.7
2016-Aug-24 00:29N 46°08' W 002°49'2 2.3
2016-Aug-23 23:33N 46°09' W 002°46'2 1.7
2016-Aug-23 22:32N 46°09' W 002°49'1 0.7
2016-Aug-23 21:34N 46°09' W 002°48'1 1.5
2016-Aug-23 20:33N 46°08' W 002°49'2 1.8
2016-Aug-23 19:32N 46°09' W 002°47'0 0.1
2016-Aug-23 18:25N 46°09' W 002°47'4 3.0
2016-Aug-23 17:06N 46°13' W 002°49'1 2.6
2016-Aug-23 16:32N 46°14' W 002°47'3 0.5
2016-Aug-23 10:33N 46°12' W 002°50'2 2.0
2016-Aug-23 09:33N 46°13' W 002°47'3 2.4
2016-Aug-23 08:29N 46°12' W 002°51'2 2.6
2016-Aug-23 07:33N 46°13' W 002°48'2 1.9
2016-Aug-23 06:33N 46°12' W 002°50'40 3.4
2016-Aug-22 18:33N 46°52' W 002°50'10 9.8
2016-Aug-22 17:31N 47°01' W 002°44'9 9.1
2016-Aug-22 16:31N 47°10' W 002°39'9 9.1
2016-Aug-22 15:33N 47°18' W 002°34'2 0.1
2016-Aug-21 02:27N 47°18' W 002°31'3 3.4
2016-Aug-21 01:33N 47°16' W 002°35'10 9.8
2016-Aug-21 00:31N 47°07' W 002°40'9 0.5
2016-Aug-20 04:24N 46°58' W 002°42'8 9.2
2016-Aug-20 03:33N 47°05' W 002°39'9 8.9
2016-Aug-20 02:33N 47°14' W 002°36'6 5.6
2016-Aug-20 01:33N 47°18' W 002°31'3 3.2
2016-Aug-20 00:33N 47°16' W 002°35'10 9.9
2016-Aug-19 23:33N 47°07' W 002°39'44 2.6
2016-Aug-19 06:30N 46°23' W 002°48'4 3.8
2016-Aug-19 05:26N 46°27' W 002°49'4 4.0
2016-Aug-19 04:29N 46°31' W 002°51'  
Track history (hours):
 
Tides and Currents Weather Stations Pressure Air Temp Water Temp Dewpoint Dewpoint Depression Visibility Wind Speed Wind Dir Waves Ship Positions

F/V Moorea

Last reported at 2016-Aug-28 02:31 UTC. Time now 2016-Aug-28 08:36 UTC.
Position N 47°18' W 002°31'.

Length 18 m.

Type: Fishing. MMSI: 228239900.

Date/timePositionNaut miles runAvg speedWind from/ knotsBaromVisibWave heightAir tempDewpointWater temp
2016-Aug-28 02:31N 47°18' W 002°31'0 0.0
2016-Aug-28 01:31N 47°18' W 002°31'5 5.4
2016-Aug-28 00:33N 47°14' W 002°35'9 9.1
2016-Aug-27 23:34N 47°05' W 002°38'9 9.2
2016-Aug-27 22:32N 46°55' W 002°40'18 9.0
2016-Aug-27 20:32N 46°38' W 002°45'8 7.9
2016-Aug-27 19:32N 46°30' W 002°47'15 2.1
2016-Aug-27 12:33N 46°15' W 002°51'4 4.1
2016-Aug-27 11:33N 46°19' W 002°52'5 4.2
2016-Aug-27 10:26N 46°23' W 002°54'2 1.1
2016-Aug-27 08:32N 46°22' W 002°52'4 3.8
2016-Aug-27 07:27N 46°26' W 002°53'4 3.9
2016-Aug-27 06:29N 46°29' W 002°55'4 2.0
2016-Aug-27 04:33N 46°33' W 002°55'4 4.0
2016-Aug-27 03:33N 46°29' W 002°55'4 3.5
2016-Aug-27 02:32N 46°26' W 002°55'28 6.5
2016-Aug-26 22:13N 46°53' W 002°47'710.1
2016-Aug-26 21:33N 46°60' W 002°44'10 9.7
2016-Aug-26 20:33N 47°09' W 002°39'9 9.5
2016-Aug-26 19:33N 47°18' W 002°35'3 0.1
2016-Aug-26 01:14N 47°18' W 002°31'3 4.9
2016-Aug-26 00:33N 47°17' W 002°36'9 9.2
2016-Aug-25 23:33N 47°08' W 002°38'9 8.9
2016-Aug-25 22:32N 46°59' W 002°40'10 9.5
2016-Aug-25 21:32N 46°50' W 002°43'40 4.3
2016-Aug-25 12:21N 46°10' W 002°49'3 3.1
2016-Aug-25 11:32N 46°12' W 002°46'2 1.2
2016-Aug-25 09:33N 46°10' W 002°48'0 0.0
2016-Aug-25 04:31N 46°10' W 002°49'8 3.9
2016-Aug-25 02:27N 46°16' W 002°40'9 9.7
2016-Aug-25 01:32N 46°19' W 002°28'1010.2
2016-Aug-25 00:33N 46°22' W 002°14'1010.2
2016-Aug-24 23:33N 46°25' W 002°00'10 9.8
2016-Aug-24 22:33N 46°29' W 001°47'1 1.1
2016-Aug-24 21:34N 46°30' W 001°48'6 5.7
2016-Aug-24 20:33N 46°27' W 001°54'8 8.2
2016-Aug-24 19:33N 46°24' W 002°06'8 8.3
2016-Aug-24 18:34N 46°22' W 002°17'9 8.4
2016-Aug-24 17:32N 46°19' W 002°29'8 8.2
2016-Aug-24 16:33N 46°16' W 002°40'7 3.2
2016-Aug-24 14:18N 46°11' W 002°48'3 3.6
2016-Aug-24 13:20N 46°08' W 002°48'0 0.2
2016-Aug-24 11:24N 46°08' W 002°48'2 2.7
2016-Aug-24 10:33N 46°10' W 002°50'3 3.0
2016-Aug-24 09:30N 46°12' W 002°46'4 3.9
2016-Aug-24 08:26N 46°08' W 002°49'4 3.3
2016-Aug-24 07:11N 46°12' W 002°47'2 3.2
2016-Aug-24 06:31N 46°14' W 002°49'5 2.3
2016-Aug-24 04:33N 46°09' W 002°48'0 0.3
2016-Aug-24 03:31N 46°09' W 002°48'1 0.9
2016-Aug-24 02:34N 46°09' W 002°49'1 0.9
2016-Aug-24 01:32N 46°08' W 002°48'1 0.7
2016-Aug-24 00:29N 46°08' W 002°49'2 2.3
2016-Aug-23 23:33N 46°09' W 002°46'2 1.7
2016-Aug-23 22:32N 46°09' W 002°49'1 0.7
2016-Aug-23 21:34N 46°09' W 002°48'1 1.5
2016-Aug-23 20:33N 46°08' W 002°49'2 1.8
2016-Aug-23 19:32N 46°09' W 002°47'0 0.1
2016-Aug-23 18:25N 46°09' W 002°47'4 3.0
2016-Aug-23 17:06N 46°13' W 002°49'1 2.6
2016-Aug-23 16:32N 46°14' W 002°47'3 0.5
2016-Aug-23 10:33N 46°12' W 002°50'2 2.0
2016-Aug-23 09:33N 46°13' W 002°47'3 2.4
2016-Aug-23 08:29N 46°12' W 002°51'2 2.6
2016-Aug-23 07:33N 46°13' W 002°48'2 1.9
2016-Aug-23 06:33N 46°12' W 002°50'40 3.4
2016-Aug-22 18:33N 46°52' W 002°50'10 9.8
2016-Aug-22 17:31N 47°01' W 002°44'9 9.1
2016-Aug-22 16:31N 47°10' W 002°39'9 9.1
2016-Aug-22 15:33N 47°18' W 002°34'2 0.1
2016-Aug-21 02:27N 47°18' W 002°31'3 3.4
2016-Aug-21 01:33N 47°16' W 002°35'10 9.8
2016-Aug-21 00:31N 47°07' W 002°40'9 0.5
2016-Aug-20 04:24N 46°58' W 002°42'8 9.2
2016-Aug-20 03:33N 47°05' W 002°39'9 8.9
2016-Aug-20 02:33N 47°14' W 002°36'6 5.6
2016-Aug-20 01:33N 47°18' W 002°31'3 3.2
2016-Aug-20 00:33N 47°16' W 002°35'10 9.9
2016-Aug-19 23:33N 47°07' W 002°39'44 2.6
2016-Aug-19 06:30N 46°23' W 002°48'4 3.8
2016-Aug-19 05:26N 46°27' W 002°49'4 4.0
2016-Aug-19 04:29N 46°31' W 002°51'  

Dump ship's entire track history